sensor_id;sensor_type;location;lat;lon;timestamp;P1;durP1;ratioP1;P2;durP2;ratioP2
33403;SDS011;19751;40.274;18.268;2022-11-15T00:01:33;10.50;;;5.15;;
33403;SDS011;19751;40.274;18.268;2022-11-15T00:03:59;6.40;;;4.53;;
33403;SDS011;19751;40.274;18.268;2022-11-15T00:06:24;6.70;;;4.80;;
33403;SDS011;19751;40.274;18.268;2022-11-15T00:08:51;7.18;;;5.47;;
33403;SDS011;19751;40.274;18.268;2022-11-15T00:11:16;7.10;;;4.90;;
33403;SDS011;19751;40.274;18.268;2022-11-15T00:13:42;6.00;;;4.38;;
33403;SDS011;19751;40.274;18.268;2022-11-15T00:16:08;6.88;;;4.55;;
33403;SDS011;19751;40.274;18.268;2022-11-15T00:18:34;5.72;;;4.15;;
33403;SDS011;19751;40.274;18.268;2022-11-15T00:21:03;9.15;;;5.05;;
33403;SDS011;19751;40.274;18.268;2022-11-15T00:23:31;7.07;;;5.15;;
33403;SDS011;19751;40.274;18.268;2022-11-15T00:25:58;5.63;;;4.80;;
33403;SDS011;19751;40.274;18.268;2022-11-15T00:28:24;8.63;;;4.97;;
33403;SDS011;19751;40.274;18.268;2022-11-15T00:30:49;11.07;;;4.90;;
33403;SDS011;19751;40.274;18.268;2022-11-15T00:33:15;7.68;;;4.88;;
33403;SDS011;19751;40.274;18.268;2022-11-15T00:35:40;5.60;;;4.40;;
33403;SDS011;19751;40.274;18.268;2022-11-15T00:38:06;7.05;;;4.88;;
33403;SDS011;19751;40.274;18.268;2022-11-15T00:40:31;9.05;;;4.50;;
33403;SDS011;19751;40.274;18.268;2022-11-15T00:42:57;7.05;;;4.35;;
33403;SDS011;19751;40.274;18.268;2022-11-15T00:45:23;7.28;;;4.30;;
33403;SDS011;19751;40.274;18.268;2022-11-15T00:47:49;6.25;;;4.28;;
33403;SDS011;19751;40.274;18.268;2022-11-15T00:50:15;6.13;;;4.43;;
33403;SDS011;19751;40.274;18.268;2022-11-15T00:52:41;4.43;;;3.42;;
33403;SDS011;19751;40.274;18.268;2022-11-15T00:55:09;4.93;;;3.80;;
33403;SDS011;19751;40.274;18.268;2022-11-15T00:57:41;4.68;;;3.58;;
33403;SDS011;19751;40.274;18.268;2022-11-15T01:00:07;6.18;;;3.40;;
33403;SDS011;19751;40.274;18.268;2022-11-15T01:02:34;3.53;;;3.15;;
33403;SDS011;19751;40.274;18.268;2022-11-15T01:04:59;6.47;;;3.00;;
33403;SDS011;19751;40.274;18.268;2022-11-15T01:07:25;5.22;;;3.05;;
33403;SDS011;19751;40.274;18.268;2022-11-15T01:09:50;5.85;;;3.40;;
33403;SDS011;19751;40.274;18.268;2022-11-15T01:12:16;3.88;;;3.33;;
33403;SDS011;19751;40.274;18.268;2022-11-15T01:14:41;3.88;;;3.45;;
33403;SDS011;19751;40.274;18.268;2022-11-15T01:17:07;6.20;;;3.75;;
33403;SDS011;19751;40.274;18.268;2022-11-15T01:19:32;5.35;;;3.70;;
33403;SDS011;19751;40.274;18.268;2022-11-15T01:21:57;3.88;;;3.35;;
33403;SDS011;19751;40.274;18.268;2022-11-15T01:24:23;4.75;;;3.25;;
33403;SDS011;19751;40.274;18.268;2022-11-15T01:26:48;6.70;;;3.92;;
33403;SDS011;19751;40.274;18.268;2022-11-15T01:29:14;6.43;;;3.67;;
33403;SDS011;19751;40.274;18.268;2022-11-15T01:31:39;6.10;;;3.85;;
33403;SDS011;19751;40.274;18.268;2022-11-15T01:34:05;6.95;;;3.22;;
33403;SDS011;19751;40.274;18.268;2022-11-15T01:36:30;5.95;;;4.07;;
33403;SDS011;19751;40.274;18.268;2022-11-15T01:38:57;6.07;;;3.63;;
33403;SDS011;19751;40.274;18.268;2022-11-15T01:41:27;8.30;;;4.25;;
33403;SDS011;19751;40.274;18.268;2022-11-15T01:43:55;5.55;;;3.42;;
33403;SDS011;19751;40.274;18.268;2022-11-15T01:46:30;7.72;;;3.50;;
33403;SDS011;19751;40.274;18.268;2022-11-15T01:49:00;7.00;;;3.85;;
33403;SDS011;19751;40.274;18.268;2022-11-15T01:51:30;4.85;;;3.70;;
33403;SDS011;19751;40.274;18.268;2022-11-15T01:53:58;4.18;;;3.63;;
33403;SDS011;19751;40.274;18.268;2022-11-15T01:56:32;6.63;;;3.95;;
33403;SDS011;19751;40.274;18.268;2022-11-15T01:59:02;3.42;;;3.10;;
33403;SDS011;19751;40.274;18.268;2022-11-15T02:01:31;4.88;;;3.35;;
33403;SDS011;19751;40.274;18.268;2022-11-15T02:04:03;5.47;;;3.33;;
33403;SDS011;19751;40.274;18.268;2022-11-15T02:06:39;5.38;;;3.22;;
33403;SDS011;19751;40.274;18.268;2022-11-15T02:09:06;4.43;;;2.67;;
33403;SDS011;19751;40.274;18.268;2022-11-15T02:11:32;5.75;;;2.88;;
33403;SDS011;19751;40.274;18.268;2022-11-15T02:13:57;3.25;;;2.95;;
33403;SDS011;19751;40.274;18.268;2022-11-15T02:36:09;4.15;;;3.03;;
33403;SDS011;19751;40.274;18.268;2022-11-15T02:39:01;3.45;;;3.15;;
33403;SDS011;19751;40.274;18.268;2022-11-15T02:44:13;3.47;;;3.17;;
33403;SDS011;19751;40.274;18.268;2022-11-15T02:46:54;5.05;;;3.50;;
33403;SDS011;19751;40.274;18.268;2022-11-15T02:49:39;5.22;;;3.83;;
33403;SDS011;19751;40.274;18.268;2022-11-15T02:52:09;5.20;;;2.75;;
33403;SDS011;19751;40.274;18.268;2022-11-15T02:54:40;4.55;;;3.30;;
33403;SDS011;19751;40.274;18.268;2022-11-15T02:57:06;3.22;;;2.92;;
33403;SDS011;19751;40.274;18.268;2022-11-15T03:04:43;6.82;;;2.83;;
33403;SDS011;19751;40.274;18.268;2022-11-15T03:07:24;4.65;;;2.75;;
33403;SDS011;19751;40.274;18.268;2022-11-15T03:12:58;4.53;;;3.25;;
33403;SDS011;19751;40.274;18.268;2022-11-15T03:15:41;6.32;;;3.95;;
33403;SDS011;19751;40.274;18.268;2022-11-15T03:18:19;4.18;;;3.00;;
33403;SDS011;19751;40.274;18.268;2022-11-15T03:20:53;4.85;;;3.10;;
33403;SDS011;19751;40.274;18.268;2022-11-15T03:23:20;3.63;;;2.75;;
33403;SDS011;19751;40.274;18.268;2022-11-15T03:25:48;3.33;;;3.00;;
33403;SDS011;19751;40.274;18.268;2022-11-15T03:28:18;3.58;;;3.22;;
33403;SDS011;19751;40.274;18.268;2022-11-15T03:30:48;4.60;;;3.17;;
33403;SDS011;19751;40.274;18.268;2022-11-15T03:33:17;5.30;;;3.75;;
33403;SDS011;19751;40.274;18.268;2022-11-15T03:35:46;5.45;;;3.80;;
33403;SDS011;19751;40.274;18.268;2022-11-15T03:41:01;7.60;;;3.70;;
33403;SDS011;19751;40.274;18.268;2022-11-15T03:46:01;6.60;;;4.18;;
33403;SDS011;19751;40.274;18.268;2022-11-15T03:48:33;6.93;;;4.33;;
33403;SDS011;19751;40.274;18.268;2022-11-15T03:51:02;8.65;;;6.03;;
33403;SDS011;19751;40.274;18.268;2022-11-15T03:53:29;6.70;;;4.68;;
33403;SDS011;19751;40.274;18.268;2022-11-15T03:55:55;6.05;;;4.82;;
33403;SDS011;19751;40.274;18.268;2022-11-15T03:58:21;8.75;;;4.72;;
33403;SDS011;19751;40.274;18.268;2022-11-15T04:00:46;6.22;;;4.80;;
33403;SDS011;19751;40.274;18.268;2022-11-15T04:03:12;5.40;;;4.25;;
33403;SDS011;19751;40.274;18.268;2022-11-15T04:05:37;6.78;;;4.72;;
33403;SDS011;19751;40.274;18.268;2022-11-15T04:08:03;8.45;;;6.40;;
33403;SDS011;19751;40.274;18.268;2022-11-15T04:10:28;5.10;;;4.30;;
33403;SDS011;19751;40.274;18.268;2022-11-15T04:12:54;5.95;;;4.65;;
33403;SDS011;19751;40.274;18.268;2022-11-15T04:15:21;8.32;;;5.93;;
33403;SDS011;19751;40.274;18.268;2022-11-15T04:17:51;7.90;;;5.07;;
33403;SDS011;19751;40.274;18.268;2022-11-15T04:20:20;6.90;;;5.18;;
33403;SDS011;19751;40.274;18.268;2022-11-15T04:23:18;5.68;;;5.05;;
33403;SDS011;19751;40.274;18.268;2022-11-15T04:28:35;8.82;;;6.03;;
33403;SDS011;19751;40.274;18.268;2022-11-15T04:31:21;7.65;;;6.25;;
33403;SDS011;19751;40.274;18.268;2022-11-15T04:33:46;5.88;;;5.15;;
33403;SDS011;19751;40.274;18.268;2022-11-15T04:36:12;7.72;;;6.20;;
33403;SDS011;19751;40.274;18.268;2022-11-15T04:38:56;8.82;;;6.43;;
33403;SDS011;19751;40.274;18.268;2022-11-15T04:41:22;8.02;;;5.88;;
33403;SDS011;19751;40.274;18.268;2022-11-15T04:43:47;11.80;;;6.15;;
33403;SDS011;19751;40.274;18.268;2022-11-15T04:46:13;9.27;;;6.78;;
33403;SDS011;19751;40.274;18.268;2022-11-15T04:48:38;14.25;;;7.75;;
33403;SDS011;19751;40.274;18.268;2022-11-15T04:51:04;9.15;;;6.82;;
33403;SDS011;19751;40.274;18.268;2022-11-15T04:53:29;10.13;;;6.90;;
33403;SDS011;19751;40.274;18.268;2022-11-15T04:55:55;8.43;;;6.50;;
33403;SDS011;19751;40.274;18.268;2022-11-15T04:58:20;9.18;;;7.07;;
33403;SDS011;19751;40.274;18.268;2022-11-15T05:00:45;10.18;;;6.78;;
33403;SDS011;19751;40.274;18.268;2022-11-15T05:03:11;8.70;;;6.43;;
33403;SDS011;19751;40.274;18.268;2022-11-15T05:05:55;9.27;;;6.82;;
33403;SDS011;19751;40.274;18.268;2022-11-15T05:08:22;9.45;;;6.43;;
33403;SDS011;19751;40.274;18.268;2022-11-15T05:10:48;7.70;;;5.97;;
33403;SDS011;19751;40.274;18.268;2022-11-15T05:13:13;9.27;;;6.50;;
33403;SDS011;19751;40.274;18.268;2022-11-15T05:15:39;7.65;;;6.03;;
33403;SDS011;19751;40.274;18.268;2022-11-15T05:18:04;9.30;;;7.07;;
33403;SDS011;19751;40.274;18.268;2022-11-15T05:20:30;7.47;;;6.25;;
33403;SDS011;19751;40.274;18.268;2022-11-15T05:22:55;10.02;;;7.18;;
33403;SDS011;19751;40.274;18.268;2022-11-15T05:25:21;9.68;;;6.97;;
33403;SDS011;19751;40.274;18.268;2022-11-15T05:27:47;9.48;;;7.43;;
33403;SDS011;19751;40.274;18.268;2022-11-15T05:30:13;10.70;;;7.57;;
33403;SDS011;19751;40.274;18.268;2022-11-15T05:32:39;9.38;;;7.35;;
33403;SDS011;19751;40.274;18.268;2022-11-15T05:35:05;11.23;;;6.50;;
33403;SDS011;19751;40.274;18.268;2022-11-15T05:37:34;10.20;;;7.57;;
33403;SDS011;19751;40.274;18.268;2022-11-15T05:40:00;12.25;;;8.35;;
33403;SDS011;19751;40.274;18.268;2022-11-15T05:42:25;13.25;;;8.20;;
33403;SDS011;19751;40.274;18.268;2022-11-15T05:44:52;11.73;;;7.75;;
33403;SDS011;19751;40.274;18.268;2022-11-15T05:47:22;11.48;;;8.57;;
33403;SDS011;19751;40.274;18.268;2022-11-15T05:49:51;10.60;;;8.10;;
33403;SDS011;19751;40.274;18.268;2022-11-15T05:52:19;10.60;;;8.18;;
33403;SDS011;19751;40.274;18.268;2022-11-15T05:54:47;12.85;;;8.95;;
33403;SDS011;19751;40.274;18.268;2022-11-15T05:57:14;12.45;;;7.78;;
33403;SDS011;19751;40.274;18.268;2022-11-15T05:59:40;10.73;;;8.07;;
33403;SDS011;19751;40.274;18.268;2022-11-15T06:02:08;9.85;;;8.05;;
33403;SDS011;19751;40.274;18.268;2022-11-15T06:04:34;10.85;;;8.73;;
33403;SDS011;19751;40.274;18.268;2022-11-15T06:07:00;11.25;;;8.52;;
33403;SDS011;19751;40.274;18.268;2022-11-15T06:09:25;11.77;;;8.30;;
33403;SDS011;19751;40.274;18.268;2022-11-15T06:11:50;10.68;;;9.23;;
33403;SDS011;19751;40.274;18.268;2022-11-15T06:14:16;12.05;;;9.30;;
33403;SDS011;19751;40.274;18.268;2022-11-15T06:16:42;13.23;;;8.52;;
33403;SDS011;19751;40.274;18.268;2022-11-15T06:19:07;15.10;;;9.55;;
33403;SDS011;19751;40.274;18.268;2022-11-15T06:21:35;14.63;;;9.57;;
33403;SDS011;19751;40.274;18.268;2022-11-15T06:24:01;13.15;;;9.57;;
33403;SDS011;19751;40.274;18.268;2022-11-15T06:26:26;15.95;;;10.32;;
33403;SDS011;19751;40.274;18.268;2022-11-15T06:28:52;16.42;;;10.05;;
33403;SDS011;19751;40.274;18.268;2022-11-15T06:31:18;15.07;;;9.63;;
33403;SDS011;19751;40.274;18.268;2022-11-15T06:33:43;18.52;;;11.57;;
33403;SDS011;19751;40.274;18.268;2022-11-15T06:36:10;13.65;;;9.85;;
33403;SDS011;19751;40.274;18.268;2022-11-15T06:38:38;16.45;;;10.57;;
33403;SDS011;19751;40.274;18.268;2022-11-15T06:41:05;13.65;;;9.23;;
33403;SDS011;19751;40.274;18.268;2022-11-15T06:43:32;12.35;;;9.38;;
33403;SDS011;19751;40.274;18.268;2022-11-15T06:45:59;13.18;;;9.88;;
33403;SDS011;19751;40.274;18.268;2022-11-15T06:48:25;12.68;;;8.90;;
33403;SDS011;19751;40.274;18.268;2022-11-15T06:50:52;11.70;;;8.57;;
33403;SDS011;19751;40.274;18.268;2022-11-15T06:53:18;12.82;;;9.23;;
33403;SDS011;19751;40.274;18.268;2022-11-15T06:55:44;12.07;;;8.95;;
33403;SDS011;19751;40.274;18.268;2022-11-15T06:58:09;13.52;;;10.25;;
33403;SDS011;19751;40.274;18.268;2022-11-15T07:00:35;10.40;;;8.20;;
33403;SDS011;19751;40.274;18.268;2022-11-15T07:03:00;14.65;;;9.27;;
33403;SDS011;19751;40.274;18.268;2022-11-15T07:05:26;13.40;;;8.32;;
33403;SDS011;19751;40.274;18.268;2022-11-15T07:07:53;9.90;;;8.15;;
33403;SDS011;19751;40.274;18.268;2022-11-15T07:10:20;13.07;;;9.68;;
33403;SDS011;19751;40.274;18.268;2022-11-15T07:15:30;11.45;;;8.90;;
33403;SDS011;19751;40.274;18.268;2022-11-15T07:17:59;12.25;;;9.00;;
33403;SDS011;19751;40.274;18.268;2022-11-15T07:20:26;10.95;;;7.72;;
33403;SDS011;19751;40.274;18.268;2022-11-15T07:22:55;13.73;;;9.68;;
33403;SDS011;19751;40.274;18.268;2022-11-15T07:25:26;11.57;;;8.55;;
33403;SDS011;19751;40.274;18.268;2022-11-15T07:27:58;11.75;;;8.38;;
33403;SDS011;19751;40.274;18.268;2022-11-15T07:30:24;13.10;;;8.68;;
33403;SDS011;19751;40.274;18.268;2022-11-15T07:32:55;16.75;;;10.43;;
33403;SDS011;19751;40.274;18.268;2022-11-15T07:35:22;14.50;;;10.10;;
33403;SDS011;19751;40.274;18.268;2022-11-15T07:37:55;13.75;;;9.52;;
33403;SDS011;19751;40.274;18.268;2022-11-15T07:40:27;12.48;;;9.30;;
33403;SDS011;19751;40.274;18.268;2022-11-15T07:43:00;14.13;;;10.05;;
33403;SDS011;19751;40.274;18.268;2022-11-15T07:45:27;19.00;;;9.20;;
33403;SDS011;19751;40.274;18.268;2022-11-15T07:47:53;17.80;;;10.55;;
33403;SDS011;19751;40.274;18.268;2022-11-15T07:50:19;21.50;;;10.82;;
33403;SDS011;19751;40.274;18.268;2022-11-15T07:52:45;13.73;;;10.52;;
33403;SDS011;19751;40.274;18.268;2022-11-15T07:55:11;16.75;;;10.90;;
33403;SDS011;19751;40.274;18.268;2022-11-15T07:57:37;13.35;;;9.43;;
33403;SDS011;19751;40.274;18.268;2022-11-15T08:00:03;14.10;;;9.85;;
33403;SDS011;19751;40.274;18.268;2022-11-15T08:02:30;14.80;;;8.88;;
33403;SDS011;19751;40.274;18.268;2022-11-15T08:04:57;16.23;;;9.75;;
33403;SDS011;19751;40.274;18.268;2022-11-15T08:07:23;16.35;;;11.10;;
33403;SDS011;19751;40.274;18.268;2022-11-15T08:09:48;17.27;;;11.18;;
33403;SDS011;19751;40.274;18.268;2022-11-15T08:12:14;15.80;;;10.93;;
33403;SDS011;19751;40.274;18.268;2022-11-15T08:14:39;14.40;;;10.77;;
33403;SDS011;19751;40.274;18.268;2022-11-15T08:17:05;14.23;;;10.10;;
33403;SDS011;19751;40.274;18.268;2022-11-15T08:19:31;12.50;;;9.00;;
33403;SDS011;19751;40.274;18.268;2022-11-15T08:21:57;12.38;;;9.05;;
33403;SDS011;19751;40.274;18.268;2022-11-15T08:24:25;13.18;;;9.48;;
33403;SDS011;19751;40.274;18.268;2022-11-15T08:26:50;14.23;;;9.43;;
33403;SDS011;19751;40.274;18.268;2022-11-15T08:29:18;15.50;;;9.38;;
33403;SDS011;19751;40.274;18.268;2022-11-15T08:31:44;16.00;;;9.80;;
33403;SDS011;19751;40.274;18.268;2022-11-15T08:34:10;11.40;;;8.75;;
33403;SDS011;19751;40.274;18.268;2022-11-15T08:36:36;14.75;;;9.55;;
33403;SDS011;19751;40.274;18.268;2022-11-15T08:39:03;14.65;;;9.40;;
33403;SDS011;19751;40.274;18.268;2022-11-15T08:41:35;13.90;;;8.80;;
33403;SDS011;19751;40.274;18.268;2022-11-15T08:44:02;9.32;;;7.35;;
33403;SDS011;19751;40.274;18.268;2022-11-15T08:46:28;9.10;;;7.57;;
33403;SDS011;19751;40.274;18.268;2022-11-15T08:48:53;14.05;;;9.25;;
33403;SDS011;19751;40.274;18.268;2022-11-15T08:51:20;13.00;;;8.82;;
33403;SDS011;19751;40.274;18.268;2022-11-15T08:53:46;13.38;;;8.05;;
33403;SDS011;19751;40.274;18.268;2022-11-15T08:56:13;23.30;;;8.50;;
33403;SDS011;19751;40.274;18.268;2022-11-15T08:58:40;11.68;;;7.47;;
33403;SDS011;19751;40.274;18.268;2022-11-15T09:01:17;9.30;;;6.07;;
33403;SDS011;19751;40.274;18.268;2022-11-15T09:03:44;8.23;;;6.47;;
33403;SDS011;19751;40.274;18.268;2022-11-15T09:06:11;8.27;;;5.90;;
33403;SDS011;19751;40.274;18.268;2022-11-15T09:08:37;11.45;;;6.50;;
33403;SDS011;19751;40.274;18.268;2022-11-15T09:11:06;15.68;;;7.43;;
33403;SDS011;19751;40.274;18.268;2022-11-15T09:13:34;11.00;;;5.60;;
33403;SDS011;19751;40.274;18.268;2022-11-15T09:16:02;8.05;;;5.78;;
33403;SDS011;19751;40.274;18.268;2022-11-15T09:18:35;7.45;;;5.70;;
33403;SDS011;19751;40.274;18.268;2022-11-15T09:21:01;7.88;;;5.05;;
33403;SDS011;19751;40.274;18.268;2022-11-15T09:23:29;5.90;;;5.28;;
33403;SDS011;19751;40.274;18.268;2022-11-15T09:25:58;11.82;;;5.88;;
33403;SDS011;19751;40.274;18.268;2022-11-15T09:28:30;12.15;;;6.60;;
33403;SDS011;19751;40.274;18.268;2022-11-15T09:31:00;8.82;;;5.53;;
33403;SDS011;19751;40.274;18.268;2022-11-15T09:33:28;9.32;;;5.43;;
33403;SDS011;19751;40.274;18.268;2022-11-15T09:35:54;6.47;;;4.50;;
33403;SDS011;19751;40.274;18.268;2022-11-15T09:38:24;6.47;;;4.85;;
33403;SDS011;19751;40.274;18.268;2022-11-15T09:40:51;6.50;;;5.13;;
33403;SDS011;19751;40.274;18.268;2022-11-15T09:49:21;5.75;;;4.63;;
33403;SDS011;19751;40.274;18.268;2022-11-15T09:51:50;4.70;;;3.92;;
33403;SDS011;19751;40.274;18.268;2022-11-15T10:05:20;3.75;;;3.45;;
33403;SDS011;19751;40.274;18.268;2022-11-15T10:10:43;6.57;;;3.75;;
33403;SDS011;19751;40.274;18.268;2022-11-15T10:13:33;9.70;;;4.15;;
33403;SDS011;19751;40.274;18.268;2022-11-15T10:19:13;5.53;;;4.13;;
33403;SDS011;19751;40.274;18.268;2022-11-15T10:24:40;4.03;;;3.38;;
33403;SDS011;19751;40.274;18.268;2022-11-15T10:27:13;4.78;;;4.25;;
33403;SDS011;19751;40.274;18.268;2022-11-15T10:29:44;8.75;;;6.53;;
33403;SDS011;19751;40.274;18.268;2022-11-15T10:32:15;6.82;;;5.57;;
33403;SDS011;19751;40.274;18.268;2022-11-15T10:34:43;6.20;;;4.47;;
33403;SDS011;19751;40.274;18.268;2022-11-15T10:37:10;6.07;;;4.60;;
33403;SDS011;19751;40.274;18.268;2022-11-15T10:39:36;4.57;;;4.07;;
33403;SDS011;19751;40.274;18.268;2022-11-15T10:42:18;3.80;;;3.40;;
33403;SDS011;19751;40.274;18.268;2022-11-15T10:44:54;5.45;;;3.35;;
33403;SDS011;19751;40.274;18.268;2022-11-15T10:47:21;9.98;;;5.15;;
33403;SDS011;19751;40.274;18.268;2022-11-15T10:49:59;7.15;;;4.03;;
33403;SDS011;19751;40.274;18.268;2022-11-15T10:52:28;5.80;;;3.63;;
33403;SDS011;19751;40.274;18.268;2022-11-15T10:55:40;11.73;;;4.68;;
33403;SDS011;19751;40.274;18.268;2022-11-15T10:57:47;9.57;;;5.22;;
33403;SDS011;19751;40.274;18.268;2022-11-15T11:05:33;5.93;;;2.55;;
33403;SDS011;19751;40.274;18.268;2022-11-15T11:08:19;7.63;;;3.60;;
33403;SDS011;19751;40.274;18.268;2022-11-15T11:10:57;6.22;;;3.42;;
33403;SDS011;19751;40.274;18.268;2022-11-15T11:13:32;6.72;;;3.00;;
33403;SDS011;19751;40.274;18.268;2022-11-15T11:16:18;3.67;;;2.63;;
33403;SDS011;19751;40.274;18.268;2022-11-15T11:19:09;11.07;;;5.40;;
33403;SDS011;19751;40.274;18.268;2022-11-15T11:22:30;4.55;;;3.40;;
33403;SDS011;19751;40.274;18.268;2022-11-15T11:30:21;4.63;;;3.63;;
33403;SDS011;19751;40.274;18.268;2022-11-15T11:49:49;5.15;;;3.40;;
33403;SDS011;19751;40.274;18.268;2022-11-15T11:52:21;3.65;;;3.30;;
33403;SDS011;19751;40.274;18.268;2022-11-15T11:57:23;4.40;;;2.70;;
33403;SDS011;19751;40.274;18.268;2022-11-15T12:08:36;2.15;;;1.95;;
33403;SDS011;19751;40.274;18.268;2022-11-15T12:11:35;3.20;;;2.03;;
33403;SDS011;19751;40.274;18.268;2022-11-15T12:13:58;3.97;;;2.33;;
33403;SDS011;19751;40.274;18.268;2022-11-15T12:16:28;3.13;;;2.83;;
33403;SDS011;19751;40.274;18.268;2022-11-15T12:18:56;5.63;;;2.90;;
33403;SDS011;19751;40.274;18.268;2022-11-15T12:24:08;2.92;;;2.50;;
33403;SDS011;19751;40.274;18.268;2022-11-15T12:26:52;5.63;;;2.75;;
33403;SDS011;19751;40.274;18.268;2022-11-15T12:29:53;4.85;;;3.00;;
33403;SDS011;19751;40.274;18.268;2022-11-15T12:32:27;5.05;;;4.53;;
33403;SDS011;19751;40.274;18.268;2022-11-15T12:34:55;3.97;;;2.67;;
33403;SDS011;19751;40.274;18.268;2022-11-15T12:43:03;9.65;;;3.17;;
33403;SDS011;19751;40.274;18.268;2022-11-15T12:51:01;6.15;;;2.88;;
33403;SDS011;19751;40.274;18.268;2022-11-15T12:53:28;5.03;;;3.20;;
33403;SDS011;19751;40.274;18.268;2022-11-15T13:02:00;4.43;;;2.75;;
33403;SDS011;19751;40.274;18.268;2022-11-15T13:11:58;7.55;;;4.00;;
33403;SDS011;19751;40.274;18.268;2022-11-15T13:17:56;5.65;;;3.13;;
33403;SDS011;19751;40.274;18.268;2022-11-15T13:20:32;3.30;;;2.75;;
33403;SDS011;19751;40.274;18.268;2022-11-15T13:28:03;5.22;;;2.63;;
33403;SDS011;19751;40.274;18.268;2022-11-15T13:30:35;3.00;;;2.72;;
33403;SDS011;19751;40.274;18.268;2022-11-15T13:33:09;3.30;;;2.47;;
33403;SDS011;19751;40.274;18.268;2022-11-15T13:35:40;3.40;;;2.72;;
33403;SDS011;19751;40.274;18.268;2022-11-15T13:38:28;2.25;;;2.03;;
33403;SDS011;19751;40.274;18.268;2022-11-15T13:40:57;3.42;;;2.38;;
33403;SDS011;19751;40.274;18.268;2022-11-15T13:46:06;3.17;;;2.70;;
33403;SDS011;19751;40.274;18.268;2022-11-15T13:48:43;4.72;;;2.85;;
33403;SDS011;19751;40.274;18.268;2022-11-15T13:56:48;3.17;;;2.78;;
33403;SDS011;19751;40.274;18.268;2022-11-15T13:59:25;3.92;;;2.95;;
33403;SDS011;19751;40.274;18.268;2022-11-15T14:01:57;4.70;;;2.80;;
33403;SDS011;19751;40.274;18.268;2022-11-15T14:04:26;3.55;;;2.80;;
33403;SDS011;19751;40.274;18.268;2022-11-15T14:07:01;4.63;;;3.22;;
33403;SDS011;19751;40.274;18.268;2022-11-15T14:09:31;5.55;;;2.63;;
33403;SDS011;19751;40.274;18.268;2022-11-15T14:11:59;2.92;;;2.55;;
33403;SDS011;19751;40.274;18.268;2022-11-15T14:14:27;3.13;;;2.83;;
33403;SDS011;19751;40.274;18.268;2022-11-15T14:16:57;3.70;;;2.78;;
33403;SDS011;19751;40.274;18.268;2022-11-15T14:24:47;2.83;;;2.47;;
33403;SDS011;19751;40.274;18.268;2022-11-15T14:27:33;5.30;;;2.70;;
33403;SDS011;19751;40.274;18.268;2022-11-15T14:29:59;4.43;;;2.80;;
33403;SDS011;19751;40.274;18.268;2022-11-15T14:32:28;4.90;;;4.38;;
33403;SDS011;19751;40.274;18.268;2022-11-15T14:35:11;3.95;;;2.65;;
33403;SDS011;19751;40.274;18.268;2022-11-15T14:37:41;6.38;;;3.38;;
33403;SDS011;19751;40.274;18.268;2022-11-15T14:40:08;6.22;;;2.95;;
33403;SDS011;19751;40.274;18.268;2022-11-15T14:42:37;4.90;;;3.28;;
33403;SDS011;19751;40.274;18.268;2022-11-15T14:45:09;6.47;;;3.72;;
33403;SDS011;19751;40.274;18.268;2022-11-15T14:47:41;3.85;;;3.13;;
33403;SDS011;19751;40.274;18.268;2022-11-15T14:50:11;6.03;;;3.63;;
33403;SDS011;19751;40.274;18.268;2022-11-15T14:52:42;5.18;;;2.53;;
33403;SDS011;19751;40.274;18.268;2022-11-15T14:55:16;3.40;;;2.63;;
33403;SDS011;19751;40.274;18.268;2022-11-15T14:57:47;5.22;;;3.45;;
33403;SDS011;19751;40.274;18.268;2022-11-15T15:00:13;3.22;;;2.78;;
33403;SDS011;19751;40.274;18.268;2022-11-15T15:02:41;6.60;;;3.47;;
33403;SDS011;19751;40.274;18.268;2022-11-15T15:05:13;2.63;;;2.42;;
33403;SDS011;19751;40.274;18.268;2022-11-15T15:07:49;3.95;;;3.13;;
33403;SDS011;19751;40.274;18.268;2022-11-15T15:10:18;5.38;;;3.97;;
33403;SDS011;19751;40.274;18.268;2022-11-15T15:12:45;3.55;;;2.97;;
33403;SDS011;19751;40.274;18.268;2022-11-15T15:15:13;3.60;;;2.85;;
33403;SDS011;19751;40.274;18.268;2022-11-15T15:17:47;4.05;;;3.20;;
33403;SDS011;19751;40.274;18.268;2022-11-15T15:22:43;5.57;;;3.08;;
33403;SDS011;19751;40.274;18.268;2022-11-15T15:25:31;3.03;;;2.60;;
33403;SDS011;19751;40.274;18.268;2022-11-15T15:27:58;5.72;;;3.10;;
33403;SDS011;19751;40.274;18.268;2022-11-15T15:30:25;4.28;;;2.75;;
33403;SDS011;19751;40.274;18.268;2022-11-15T15:32:54;3.80;;;2.88;;
33403;SDS011;19751;40.274;18.268;2022-11-15T15:35:20;2.75;;;2.53;;
33403;SDS011;19751;40.274;18.268;2022-11-15T15:37:46;4.18;;;3.08;;
33403;SDS011;19751;40.274;18.268;2022-11-15T15:40:17;3.63;;;2.42;;
33403;SDS011;19751;40.274;18.268;2022-11-15T15:42:47;2.95;;;2.65;;
33403;SDS011;19751;40.274;18.268;2022-11-15T15:45:13;5.30;;;3.42;;
33403;SDS011;19751;40.274;18.268;2022-11-15T15:47:41;3.55;;;2.55;;
33403;SDS011;19751;40.274;18.268;2022-11-15T15:50:26;3.05;;;2.42;;
33403;SDS011;19751;40.274;18.268;2022-11-15T15:52:57;3.50;;;2.97;;
33403;SDS011;19751;40.274;18.268;2022-11-15T15:55:26;3.50;;;3.17;;
33403;SDS011;19751;40.274;18.268;2022-11-15T15:57:52;4.07;;;3.35;;
33403;SDS011;19751;40.274;18.268;2022-11-15T16:00:21;5.85;;;3.95;;
33403;SDS011;19751;40.274;18.268;2022-11-15T16:02:48;4.97;;;4.28;;
33403;SDS011;19751;40.274;18.268;2022-11-15T16:05:14;10.00;;;6.70;;
33403;SDS011;19751;40.274;18.268;2022-11-15T16:07:40;13.05;;;7.63;;
33403;SDS011;19751;40.274;18.268;2022-11-15T16:10:16;10.63;;;7.22;;
33403;SDS011;19751;40.274;18.268;2022-11-15T16:12:42;15.25;;;10.10;;
33403;SDS011;19751;40.274;18.268;2022-11-15T16:15:08;13.18;;;8.95;;
33403;SDS011;19751;40.274;18.268;2022-11-15T16:17:37;14.85;;;9.95;;
33403;SDS011;19751;40.274;18.268;2022-11-15T16:20:06;14.65;;;9.95;;
33403;SDS011;19751;40.274;18.268;2022-11-15T16:22:32;16.48;;;12.07;;
33403;SDS011;19751;40.274;18.268;2022-11-15T16:24:58;20.23;;;13.10;;
33403;SDS011;19751;40.274;18.268;2022-11-15T16:27:24;20.38;;;15.02;;
33403;SDS011;19751;40.274;18.268;2022-11-15T16:32:24;20.23;;;15.93;;
33403;SDS011;19751;40.274;18.268;2022-11-15T16:34:56;21.63;;;16.08;;
33403;SDS011;19751;40.274;18.268;2022-11-15T16:37:23;19.55;;;14.95;;
33403;SDS011;19751;40.274;18.268;2022-11-15T16:39:49;21.70;;;15.15;;
33403;SDS011;19751;40.274;18.268;2022-11-15T16:42:15;18.95;;;12.88;;
33403;SDS011;19751;40.274;18.268;2022-11-15T16:44:41;14.60;;;11.27;;
33403;SDS011;19751;40.274;18.268;2022-11-15T16:47:19;13.93;;;11.00;;
33403;SDS011;19751;40.274;18.268;2022-11-15T16:49:45;15.27;;;10.27;;
33403;SDS011;19751;40.274;18.268;2022-11-15T16:52:11;13.63;;;9.98;;
33403;SDS011;19751;40.274;18.268;2022-11-15T16:54:36;15.93;;;10.35;;
33403;SDS011;19751;40.274;18.268;2022-11-15T16:57:09;13.45;;;8.77;;
33403;SDS011;19751;40.274;18.268;2022-11-15T16:59:35;10.75;;;9.00;;
33403;SDS011;19751;40.274;18.268;2022-11-15T17:02:07;14.90;;;10.40;;
33403;SDS011;19751;40.274;18.268;2022-11-15T17:04:36;11.73;;;9.43;;
33403;SDS011;19751;40.274;18.268;2022-11-15T17:07:02;13.10;;;8.55;;
33403;SDS011;19751;40.274;18.268;2022-11-15T17:09:27;11.95;;;7.53;;
33403;SDS011;19751;40.274;18.268;2022-11-15T17:11:54;10.50;;;7.10;;
33403;SDS011;19751;40.274;18.268;2022-11-15T17:14:20;12.98;;;8.27;;
33403;SDS011;19751;40.274;18.268;2022-11-15T17:16:48;11.45;;;8.00;;
33403;SDS011;19751;40.274;18.268;2022-11-15T17:19:14;10.35;;;7.70;;
33403;SDS011;19751;40.274;18.268;2022-11-15T17:21:44;13.90;;;8.93;;